Rio Maria, Brazil
Current Conditions -  °F | °C
As of 6:00 PM on Monday 22 Dec 2014 (Local Time) from SBMA Reporting Station
Clear Clear  
Wind Chill: 84°   Ceiling: Unl
Heat Index: 94°   Visibility: 6mi
Dew Point: 77°   Wind: 2mph
Humidity: 79%   Direction: 360°N
Pressure: 29.77"   Gusts: NA
Location:  7.31°S, 50.05°W
Report Text: SBMA 222100Z 36002KT CAVOK 29/25 Q1008
Loading
Personal Weather Stations






























Interactive Weather Map New forecast layout! Learn more

10-Day Weather Forecast

Advertisements
Track Severe Weather on mobile